createdAt,value
2022-09-18T00:01:14.797Z,88977.56
2022-09-18T00:03:42.752Z,88980.34
2022-09-18T00:06:12.294Z,88978.69
2022-09-18T00:08:39.980Z,88971.25
2022-09-18T00:11:08.817Z,88969.66
2022-09-18T00:13:37.933Z,88966.94
2022-09-18T00:16:06.655Z,88966.84
2022-09-18T00:18:34.162Z,88965.75
2022-09-18T00:21:09.058Z,88959.59
2022-09-18T00:23:36.824Z,88964.31
2022-09-18T00:26:04.932Z,88963.59
2022-09-18T00:28:33.253Z,88966.00
2022-09-18T00:31:11.577Z,88961.38
2022-09-18T00:33:39.261Z,88969.59
2022-09-18T00:36:08.983Z,88971.50
2022-09-18T00:38:36.375Z,88969.19
2022-09-18T00:41:06.090Z,88966.44
2022-09-18T00:43:34.734Z,88969.78
2022-09-18T00:46:05.392Z,88967.81
2022-09-18T00:48:53.246Z,88959.28
2022-09-18T00:51:20.349Z,88963.63
2022-09-18T00:53:55.820Z,88959.38
2022-09-18T00:56:23.070Z,88956.69
2022-09-18T00:58:50.085Z,88966.22
2022-09-18T01:01:16.960Z,88970.03
2022-09-18T01:03:43.906Z,88972.69
2022-09-18T01:06:17.426Z,88964.88
2022-09-18T01:09:01.984Z,88969.19
2022-09-18T01:11:44.094Z,88968.63
2022-09-18T01:14:22.746Z,88979.81
2022-09-18T01:16:58.542Z,88967.97
2022-09-18T01:19:52.762Z,88974.31
2022-09-18T01:22:28.261Z,88971.03
2022-09-18T01:25:36.146Z,88968.16
2022-09-18T01:28:28.045Z,88972.69
2022-09-18T01:31:03.377Z,88964.56
2022-09-18T01:33:51.559Z,88972.03
2022-09-18T01:36:21.685Z,88973.16
2022-09-18T01:38:54.163Z,88971.25
2022-09-18T01:41:27.754Z,88970.25
2022-09-18T01:44:06.824Z,88963.72
2022-09-18T01:46:37.812Z,88972.03
2022-09-18T01:49:12.830Z,88974.75
2022-09-18T01:51:49.567Z,88971.81
2022-09-18T01:54:21.792Z,88974.84
2022-09-18T01:56:55.942Z,88972.69
2022-09-18T01:59:28.342Z,88976.72
2022-09-18T02:02:00.204Z,88978.81
2022-09-18T02:04:31.324Z,88983.34
2022-09-18T02:07:11.404Z,88986.03
2022-09-18T02:09:38.137Z,88985.13
2022-09-18T02:12:09.451Z,88974.81
2022-09-18T02:14:41.046Z,88973.34
2022-09-18T02:17:15.596Z,88972.41
2022-09-18T02:19:47.477Z,88971.84
2022-09-18T02:22:17.903Z,88981.97
2022-09-18T02:24:47.381Z,88977.38
2022-09-18T02:27:16.448Z,88986.75
2022-09-18T02:29:45.375Z,88974.13
2022-09-18T02:32:13.343Z,88980.78
2022-09-18T02:34:40.315Z,88978.06
2022-09-18T02:37:07.077Z,88981.09
2022-09-18T02:39:52.253Z,88986.28
2022-09-18T02:42:41.890Z,88983.41
2022-09-18T02:45:22.956Z,88983.69
2022-09-18T02:48:27.133Z,88986.91
2022-09-18T02:51:07.166Z,88989.91
2022-09-18T02:54:06.509Z,88984.25
2022-09-18T02:56:58.362Z,88984.91
2022-09-18T02:59:29.135Z,88991.78
2022-09-18T03:01:57.810Z,89001.31
2022-09-18T03:04:27.273Z,88996.78
2022-09-18T03:06:54.570Z,88996.38
2022-09-18T03:09:21.703Z,89001.09
2022-09-18T03:11:48.689Z,89001.63
2022-09-18T03:14:15.722Z,89005.91
2022-09-18T03:16:42.631Z,89006.53
2022-09-18T03:19:09.467Z,89003.28
2022-09-18T03:21:36.456Z,89003.31
2022-09-18T03:24:03.301Z,89007.28
2022-09-18T03:26:30.325Z,89007.44
2022-09-18T03:28:57.147Z,89012.63
2022-09-18T03:31:24.650Z,89013.19
2022-09-18T03:33:51.673Z,89013.91
2022-09-18T03:36:18.483Z,89016.94
2022-09-18T03:38:45.281Z,89015.53
2022-09-18T03:41:12.252Z,89012.31
2022-09-18T03:43:38.968Z,89010.84
2022-09-18T03:46:05.954Z,89013.00
2022-09-18T03:48:33.016Z,89008.63
2022-09-18T03:50:59.843Z,89013.56
2022-09-18T03:53:26.642Z,89015.16
2022-09-18T03:55:53.667Z,89011.75
2022-09-18T03:58:20.547Z,89020.34
2022-09-18T04:00:47.379Z,89024.72
2022-09-18T04:03:14.456Z,89014.88
2022-09-18T04:05:41.244Z,89020.13
2022-09-18T04:08:08.069Z,89023.94
2022-09-18T04:10:35.301Z,89022.97
2022-09-18T04:13:02.237Z,89021.63
2022-09-18T04:15:29.086Z,89023.13
2022-09-18T04:17:56.298Z,89008.69
2022-09-18T04:20:23.045Z,89016.13
2022-09-18T04:22:49.777Z,89028.03
2022-09-18T04:25:17.534Z,89026.66
2022-09-18T04:27:44.297Z,89023.56
2022-09-18T04:30:11.890Z,89026.50
2022-09-18T04:32:38.730Z,89021.59
2022-09-18T04:35:06.052Z,89031.38
2022-09-18T04:37:33.880Z,89020.53
2022-09-18T04:40:00.954Z,89014.09
2022-09-18T04:42:28.182Z,89018.47
2022-09-18T04:44:54.977Z,89023.50
2022-09-18T04:47:21.992Z,89037.72
2022-09-18T04:49:48.727Z,89039.72
2022-09-18T04:52:16.086Z,89034.97
2022-09-18T04:54:44.294Z,89042.59
2022-09-18T04:57:11.317Z,89029.66
2022-09-18T04:59:38.254Z,89032.31
2022-09-18T05:02:05.289Z,89034.78
2022-09-18T05:04:32.130Z,89045.81
2022-09-18T05:06:59.159Z,89043.44
2022-09-18T05:09:26.020Z,89049.53
2022-09-18T05:11:52.821Z,89046.09
2022-09-18T05:14:19.578Z,89045.81
2022-09-18T05:16:46.465Z,89043.81
2022-09-18T05:19:13.259Z,89045.84
2022-09-18T05:21:40.411Z,89044.41
2022-09-18T05:24:07.554Z,89043.84
2022-09-18T05:26:34.506Z,89044.72
2022-09-18T05:29:01.748Z,89042.50
2022-09-18T05:31:28.543Z,89035.59
2022-09-18T05:33:55.440Z,89043.84
2022-09-18T05:36:22.498Z,89043.41
2022-09-18T05:38:53.381Z,89038.63
2022-09-18T05:41:20.331Z,89057.41
2022-09-18T05:43:47.126Z,89045.59
2022-09-18T05:46:14.227Z,89053.63
2022-09-18T05:48:41.458Z,89047.59
2022-09-18T05:51:08.305Z,89046.97
2022-09-18T05:53:35.221Z,89052.78
2022-09-18T05:56:02.417Z,89055.56
2022-09-18T05:58:29.368Z,89051.09
2022-09-18T06:00:59.520Z,89055.28
2022-09-18T06:03:26.414Z,89054.34
2022-09-18T06:05:54.726Z,89058.47
2022-09-18T06:08:22.417Z,89063.34
2022-09-18T06:10:49.670Z,89062.50
2022-09-18T06:13:18.422Z,89062.06
2022-09-18T06:15:51.053Z,89053.03
2022-09-18T06:18:18.714Z,89060.03
2022-09-18T06:20:58.528Z,89059.59
2022-09-18T06:23:28.778Z,89059.75
2022-09-18T06:26:04.366Z,89058.19
2022-09-18T06:28:31.797Z,89063.19
2022-09-18T06:30:59.682Z,89054.84
2022-09-18T06:33:27.459Z,89064.28
2022-09-18T06:35:54.381Z,89065.28
2022-09-18T06:38:21.707Z,89065.66
2022-09-18T06:40:52.743Z,89068.25
2022-09-18T06:43:20.002Z,89067.50
2022-09-18T06:45:54.517Z,89066.63
2022-09-18T06:48:23.085Z,89064.28
2022-09-18T06:50:58.067Z,89064.81
2022-09-18T06:53:25.411Z,89064.72
2022-09-18T06:55:52.457Z,89073.75
2022-09-18T06:58:20.248Z,89057.72
2022-09-18T07:00:47.426Z,89064.19
2022-09-18T07:03:14.305Z,89064.06
2022-09-18T07:05:43.285Z,89062.97
2022-09-18T07:08:10.290Z,89061.34
2022-09-18T07:10:37.395Z,89056.09
2022-09-18T07:13:04.383Z,89058.94
2022-09-18T07:15:31.954Z,89063.88
2022-09-18T07:18:00.494Z,89064.91
2022-09-18T07:20:28.125Z,89057.44
2022-09-18T07:22:57.094Z,89054.56
2022-09-18T07:25:24.719Z,89056.00
2022-09-18T07:27:52.300Z,89051.38
2022-09-18T07:30:20.664Z,89060.78
2022-09-18T07:32:48.199Z,89050.81
2022-09-18T07:35:15.511Z,89057.00
2022-09-18T07:37:42.313Z,89053.88
2022-09-18T07:40:09.899Z,89051.19
2022-09-18T07:42:36.895Z,89046.53
2022-09-18T07:45:04.338Z,89047.53
2022-09-18T07:47:31.105Z,89046.56
2022-09-18T07:49:57.991Z,89037.19
2022-09-18T07:52:24.824Z,89038.47
2022-09-18T07:54:51.711Z,89040.72
2022-09-18T07:57:18.588Z,89039.81
2022-09-18T07:59:45.401Z,89033.13
2022-09-18T08:02:12.289Z,89043.06
2022-09-18T08:04:39.386Z,89036.72
2022-09-18T08:07:06.145Z,89045.69
2022-09-18T08:09:36.053Z,89040.63
2022-09-18T08:12:03.087Z,89042.16
2022-09-18T08:14:29.999Z,89044.88
2022-09-18T08:16:56.901Z,89041.63
2022-09-18T08:19:24.036Z,89043.38
2022-09-18T08:21:50.953Z,89041.66
2022-09-18T08:24:17.779Z,89044.25
2022-09-18T08:26:45.195Z,89038.47
2022-09-18T08:29:12.341Z,89046.38
2022-09-18T08:31:39.149Z,89047.91
2022-09-18T08:34:06.032Z,89040.53
2022-09-18T08:36:32.800Z,89029.75
2022-09-18T08:38:59.626Z,89032.41
2022-09-18T08:41:45.220Z,89034.63
2022-09-18T08:44:49.203Z,89025.72
2022-09-18T08:47:26.922Z,89024.41
2022-09-18T08:50:20.521Z,89035.81
2022-09-18T08:52:58.139Z,89026.41
2022-09-18T08:55:29.590Z,89020.00
2022-09-18T08:58:01.669Z,89023.41
2022-09-18T09:00:37.749Z,89028.88
2022-09-18T09:03:20.804Z,89021.00
2022-09-18T09:05:58.010Z,89018.13
2022-09-18T09:08:43.475Z,89019.94
2022-09-18T09:11:21.863Z,89018.91
2022-09-18T09:14:01.621Z,89013.19
2022-09-18T09:16:34.314Z,89019.63
2022-09-18T09:19:09.881Z,89016.34
2022-09-18T09:21:54.843Z,89014.81
2022-09-18T09:24:27.841Z,89013.97
2022-09-18T09:26:57.132Z,89023.44
2022-09-18T09:29:36.638Z,89023.84
2022-09-18T09:32:21.120Z,89017.91
2022-09-18T09:34:59.197Z,89021.06
2022-09-18T09:37:42.595Z,89016.28
2022-09-18T09:40:20.529Z,89007.94
2022-09-18T09:42:47.695Z,89007.78
2022-09-18T09:45:33.764Z,89012.84
2022-09-18T09:48:18.754Z,89015.81
2022-09-18T09:51:09.246Z,89013.34
2022-09-18T09:53:37.557Z,89008.78
2022-09-18T09:56:30.343Z,89006.72
2022-09-18T09:59:35.541Z,89015.28
2022-09-18T10:02:21.951Z,89010.69
2022-09-18T10:05:00.495Z,89005.06
2022-09-18T10:08:06.093Z,89007.72
2022-09-18T10:10:51.673Z,89002.88
2022-09-18T10:13:22.545Z,88997.28
2022-09-18T10:15:54.270Z,89000.56
2022-09-18T10:18:26.852Z,88994.66
2022-09-18T10:21:06.694Z,88991.16
2022-09-18T10:23:41.125Z,88991.59
2022-09-18T10:26:15.431Z,88982.63
2022-09-18T10:28:42.389Z,88985.84
2022-09-18T10:31:10.987Z,88983.13
2022-09-18T10:33:49.977Z,88980.69
2022-09-18T10:36:39.296Z,88985.03
2022-09-18T10:39:31.590Z,88985.28
2022-09-18T10:42:00.107Z,88976.69
2022-09-18T10:44:38.501Z,88960.69
2022-09-18T10:47:09.931Z,88972.59
2022-09-18T10:49:49.857Z,88966.72
2022-09-18T10:52:34.689Z,88965.13
2022-09-18T10:55:08.182Z,88944.38
2022-09-18T10:57:45.260Z,88949.78
2022-09-18T11:00:13.031Z,88945.56
2022-09-18T11:02:46.927Z,88945.81
2022-09-18T11:05:49.292Z,88954.81
2022-09-18T11:08:20.161Z,88949.41
2022-09-18T11:10:49.660Z,88943.50
2022-09-18T11:13:25.664Z,88944.75
2022-09-18T11:15:57.584Z,88945.94
2022-09-18T11:18:29.562Z,88941.19
2022-09-18T11:21:01.554Z,88936.19
2022-09-18T11:23:31.672Z,88926.31
2022-09-18T11:26:17.246Z,88931.56
2022-09-18T11:29:17.971Z,88930.31
2022-09-18T11:31:48.340Z,88922.41
2022-09-18T11:34:41.250Z,88924.72
2022-09-18T11:37:22.949Z,88927.44
2022-09-18T11:39:57.593Z,88922.22
2022-09-18T11:42:24.895Z,88927.00
2022-09-18T11:44:52.720Z,88910.09
2022-09-18T11:47:25.175Z,88917.13
2022-09-18T11:49:55.900Z,88913.59
2022-09-18T11:52:38.692Z,88900.06
2022-09-18T11:55:20.430Z,88897.13
2022-09-18T11:58:11.898Z,88905.41
2022-09-18T12:01:10.196Z,88900.00
2022-09-18T12:03:49.048Z,88896.84
2022-09-18T12:06:26.295Z,88896.59
2022-09-18T12:08:57.549Z,88891.63
2022-09-18T12:11:40.129Z,88896.03
2022-09-18T12:14:33.538Z,88895.69
2022-09-18T12:17:10.788Z,88887.13
2022-09-18T12:19:53.275Z,88887.50
2022-09-18T12:22:28.740Z,88877.72
2022-09-18T12:24:55.864Z,88876.41
2022-09-18T12:27:31.688Z,88888.69
2022-09-18T12:30:06.646Z,88883.69
2022-09-18T12:32:52.763Z,88878.88
2022-09-18T12:35:25.386Z,88867.34
2022-09-18T12:38:21.580Z,88873.06
2022-09-18T12:40:51.657Z,88869.16
2022-09-18T12:43:41.870Z,88857.41
2022-09-18T12:46:15.033Z,88856.81
2022-09-18T12:49:19.741Z,88861.63
2022-09-18T12:51:50.602Z,88853.69
2022-09-18T12:54:34.673Z,88854.97
2022-09-18T12:57:17.946Z,88855.09
2022-09-18T13:00:02.344Z,88851.53
2022-09-18T13:02:35.652Z,88837.66
2022-09-18T13:05:29.602Z,88837.59
2022-09-18T13:08:16.311Z,88843.72
2022-09-18T13:10:46.074Z,88850.09
2022-09-18T13:13:27.800Z,88843.16
2022-09-18T13:16:09.474Z,88844.94
2022-09-18T13:18:50.394Z,88837.81
2022-09-18T13:21:43.885Z,88837.66
2022-09-18T13:24:32.864Z,88838.72
2022-09-18T13:27:04.287Z,88828.09
2022-09-18T13:29:59.207Z,88830.72
2022-09-18T13:32:42.108Z,88826.00
2022-09-18T13:35:22.337Z,88840.03
2022-09-18T13:38:02.841Z,88827.34
2022-09-18T13:40:59.648Z,88833.84
2022-09-18T13:43:29.711Z,88837.06
2022-09-18T13:45:57.831Z,88828.41
2022-09-18T13:48:32.832Z,88821.56
2022-09-18T13:51:08.771Z,88824.09
2022-09-18T13:53:42.591Z,88818.25
2022-09-18T13:56:14.883Z,88816.25
2022-09-18T13:58:53.870Z,88813.41
2022-09-18T14:01:42.350Z,88808.94
2022-09-18T14:04:40.174Z,88790.38
2022-09-18T14:07:19.169Z,88789.84
2022-09-18T14:09:56.140Z,88798.50
2022-09-18T14:12:24.486Z,88800.59
2022-09-18T14:15:20.806Z,88796.13
2022-09-18T14:18:07.333Z,88798.16
2022-09-18T14:20:34.891Z,88801.97
2022-09-18T14:23:35.626Z,88806.16
2022-09-18T14:26:08.930Z,88805.75
2022-09-18T14:28:36.391Z,88797.66
2022-09-18T14:31:22.895Z,88800.50
2022-09-18T14:33:49.819Z,88805.66
2022-09-18T14:36:16.707Z,88805.50
2022-09-18T14:38:43.626Z,88802.22
2022-09-18T14:41:24.518Z,88800.94
2022-09-18T14:43:55.908Z,88809.16
2022-09-18T14:46:25.422Z,88798.38
2022-09-18T14:48:53.035Z,88804.41
2022-09-18T14:51:25.210Z,88804.00
2022-09-18T14:53:54.433Z,88799.72
2022-09-18T14:56:36.872Z,88799.50
2022-09-18T14:59:06.411Z,88799.31
2022-09-18T15:01:35.721Z,88803.66
2022-09-18T15:04:05.168Z,88804.00
2022-09-18T15:06:37.806Z,88803.06
2022-09-18T15:09:09.746Z,88795.84
2022-09-18T15:11:52.464Z,88813.34
2022-09-18T15:14:45.346Z,88811.72
2022-09-18T15:17:26.605Z,88808.88
2022-09-18T15:20:04.324Z,88807.31
2022-09-18T15:22:31.159Z,88804.91
2022-09-18T15:24:58.150Z,88802.25
2022-09-18T15:27:25.732Z,88806.81
2022-09-18T15:30:00.330Z,88807.34
2022-09-18T15:32:35.290Z,88798.25
2022-09-18T15:35:05.339Z,88806.38
2022-09-18T15:37:32.535Z,88795.91
2022-09-18T15:40:09.179Z,88803.44
2022-09-18T15:42:40.634Z,88805.75
2022-09-18T15:45:07.458Z,88801.69
2022-09-18T15:47:35.886Z,88812.34
2022-09-18T15:50:29.414Z,88817.81
2022-09-18T15:52:56.170Z,88810.81
2022-09-18T15:55:26.280Z,88809.19
2022-09-18T15:57:54.698Z,88813.53
2022-09-18T16:00:24.759Z,88809.88
2022-09-18T16:03:04.918Z,88815.16
2022-09-18T16:05:33.354Z,88820.63
2022-09-18T16:08:04.070Z,88817.66
2022-09-18T16:10:36.752Z,88821.72
2022-09-18T16:13:15.538Z,88818.88
2022-09-18T16:15:45.249Z,88826.28
2022-09-18T16:18:28.521Z,88821.06
2022-09-18T16:20:55.835Z,88830.16
2022-09-18T16:23:35.276Z,88821.78
2022-09-18T16:26:11.666Z,88822.91
2022-09-18T16:28:59.152Z,88827.72
2022-09-18T16:31:29.071Z,88830.59
2022-09-18T16:34:01.052Z,88826.41
2022-09-18T16:36:42.793Z,88828.81
2022-09-18T16:39:15.368Z,88831.91
2022-09-18T16:41:42.868Z,88834.91
2022-09-18T16:44:12.329Z,88839.59
2022-09-18T16:46:47.295Z,88836.28
2022-09-18T16:49:17.576Z,88838.66
2022-09-18T16:51:52.816Z,88838.44
2022-09-18T16:54:20.084Z,88839.63
2022-09-18T16:56:57.940Z,88849.16
2022-09-18T16:59:29.518Z,88857.00
2022-09-18T17:02:04.320Z,88858.00
2022-09-18T17:04:32.627Z,88859.16
2022-09-18T17:06:59.703Z,88871.69
2022-09-18T17:09:26.913Z,88877.50
2022-09-18T17:11:54.575Z,88877.75
2022-09-18T17:14:23.046Z,88875.94
2022-09-18T17:16:49.996Z,88878.88
2022-09-18T17:19:17.015Z,88882.44
2022-09-18T17:21:43.821Z,88890.03
2022-09-18T17:24:11.562Z,88891.16
2022-09-18T17:26:40.337Z,88891.81
2022-09-18T17:29:09.466Z,88900.28
2022-09-18T17:31:36.277Z,88892.72
2022-09-18T17:34:03.315Z,88903.63
2022-09-18T17:36:30.369Z,88900.78
2022-09-18T17:39:01.738Z,88906.22
2022-09-18T17:41:29.315Z,88904.72
2022-09-18T17:43:56.213Z,88916.84
2022-09-18T17:46:23.131Z,88913.72
2022-09-18T17:48:58.072Z,88916.09
2022-09-18T17:51:28.645Z,88927.28
2022-09-18T17:54:01.936Z,88919.72
2022-09-18T17:56:29.607Z,88930.66
2022-09-18T17:58:57.574Z,88936.13
2022-09-18T18:01:24.470Z,88917.63
2022-09-18T18:03:51.260Z,88922.06
2022-09-18T18:06:21.644Z,88930.25
2022-09-18T18:08:49.110Z,88939.16
2022-09-18T18:11:19.137Z,88942.88
2022-09-18T18:13:46.411Z,88943.03
2022-09-18T18:16:15.851Z,88943.44
2022-09-18T18:18:43.693Z,88949.47
2022-09-18T18:21:11.124Z,88952.19
2022-09-18T18:23:38.480Z,88954.47
2022-09-18T18:26:07.584Z,88955.75
2022-09-18T18:28:35.771Z,88969.69
2022-09-18T18:31:06.148Z,88978.28
2022-09-18T18:33:36.811Z,88978.84
2022-09-18T18:36:17.475Z,88978.97
2022-09-18T18:38:46.425Z,88983.28
2022-09-18T18:41:14.877Z,88992.59
2022-09-18T18:43:42.211Z,88998.03
2022-09-18T18:46:10.821Z,88998.91
2022-09-18T18:48:37.637Z,89005.34
2022-09-18T18:51:08.402Z,89001.34
2022-09-18T18:53:35.543Z,89007.34
2022-09-18T18:56:08.335Z,89006.44
2022-09-18T18:58:35.373Z,89012.94
2022-09-18T19:01:17.142Z,89006.38
2022-09-18T19:03:52.897Z,89011.25
2022-09-18T19:06:20.572Z,89011.69
2022-09-18T19:08:47.790Z,89015.22
2022-09-18T19:11:16.951Z,89010.66
2022-09-18T19:13:43.908Z,89020.69
2022-09-18T19:16:12.385Z,89022.72
2022-09-18T19:18:39.653Z,89025.84
2022-09-18T19:21:06.672Z,89022.72
2022-09-18T19:23:34.426Z,89017.69
2022-09-18T19:26:02.466Z,89017.13
2022-09-18T19:28:30.405Z,89024.41
2022-09-18T19:31:04.545Z,89024.56
2022-09-18T19:33:34.674Z,89030.75
2022-09-18T19:36:08.526Z,89033.88
2022-09-18T19:38:35.315Z,89036.56
2022-09-18T19:41:06.905Z,89038.13
2022-09-18T19:43:36.116Z,89051.59
2022-09-18T19:46:06.433Z,89047.41
2022-09-18T19:48:33.645Z,89050.00
2022-09-18T19:51:00.500Z,89047.59
2022-09-18T19:53:27.347Z,89043.03
2022-09-18T19:55:57.283Z,89045.75
2022-09-18T19:58:24.169Z,89042.13
2022-09-18T20:00:50.966Z,89055.88
2022-09-18T20:03:17.987Z,89057.03
2022-09-18T20:05:44.901Z,89060.41
2022-09-18T20:08:11.908Z,89064.25
2022-09-18T20:10:40.481Z,89056.94
2022-09-18T20:13:08.549Z,89068.25
2022-09-18T20:15:35.397Z,89071.59
2022-09-18T20:18:05.816Z,89072.88
2022-09-18T20:20:34.482Z,89074.13
2022-09-18T20:23:01.401Z,89081.03
2022-09-18T20:25:28.309Z,89082.56
2022-09-18T20:27:55.151Z,89095.91
2022-09-18T20:30:22.199Z,89091.53
2022-09-18T20:32:49.024Z,89089.69
2022-09-18T20:35:16.083Z,89097.63
2022-09-18T20:37:43.051Z,89097.22
2022-09-18T20:40:11.002Z,89113.69
2022-09-18T20:42:38.422Z,89106.19
2022-09-18T20:45:05.818Z,89105.44
2022-09-18T20:47:34.195Z,89120.97
2022-09-18T20:50:06.169Z,89124.03
2022-09-18T20:52:41.919Z,89119.16
2022-09-18T20:55:17.668Z,89122.22
2022-09-18T20:57:44.818Z,89122.75
2022-09-18T21:00:12.998Z,89112.47
2022-09-18T21:02:39.939Z,89109.84
2022-09-18T21:05:09.835Z,89107.13
2022-09-18T21:07:36.784Z,89111.13
2022-09-18T21:10:03.965Z,89116.41
2022-09-18T21:12:30.786Z,89117.69
2022-09-18T21:14:57.714Z,89112.44
2022-09-18T21:17:31.737Z,89123.84
2022-09-18T21:19:58.475Z,89120.03
2022-09-18T21:22:25.344Z,89124.00
2022-09-18T21:24:52.261Z,89140.09
2022-09-18T21:27:19.146Z,89124.41
2022-09-18T21:29:45.992Z,89134.88
2022-09-18T21:32:12.963Z,89136.16
2022-09-18T21:34:39.959Z,89129.13
2022-09-18T21:37:08.032Z,89129.31
2022-09-18T21:39:35.690Z,89124.81
2022-09-18T21:42:05.516Z,89132.75
2022-09-18T21:44:32.448Z,89125.38
2022-09-18T21:47:05.329Z,89129.16
2022-09-18T21:49:32.561Z,89119.38
2022-09-18T21:52:02.327Z,89122.28
2022-09-18T21:54:30.367Z,89122.28
2022-09-18T21:56:57.189Z,89129.31
2022-09-18T21:59:29.195Z,89137.59
2022-09-18T22:01:56.769Z,89134.19
2022-09-18T22:04:25.612Z,89144.84
2022-09-18T22:06:54.169Z,89137.81
2022-09-18T22:09:30.404Z,89141.06
2022-09-18T22:11:58.869Z,89155.84
2022-09-18T22:14:32.795Z,89153.66
2022-09-18T22:17:04.833Z,89149.13
2022-09-18T22:19:32.014Z,89157.59
2022-09-18T22:21:59.117Z,89152.19
2022-09-18T22:24:27.612Z,89149.81
2022-09-18T22:27:02.482Z,89148.75
2022-09-18T22:29:34.424Z,89153.78
2022-09-18T22:32:01.771Z,89150.66
2022-09-18T22:34:31.911Z,89147.97
2022-09-18T22:36:59.988Z,89153.56
2022-09-18T22:39:27.284Z,89157.19
2022-09-18T22:41:54.652Z,89152.84
2022-09-18T22:44:21.697Z,89145.81
2022-09-18T22:46:50.232Z,89155.94
2022-09-18T22:49:18.314Z,89147.41
2022-09-18T22:51:45.982Z,89153.91
2022-09-18T22:54:13.803Z,89158.78
2022-09-18T22:56:48.248Z,89167.81
2022-09-18T22:59:20.487Z,89168.50
2022-09-18T23:02:13.996Z,89166.53
2022-09-18T23:04:40.899Z,89168.91
2022-09-18T23:07:07.853Z,89168.69
2022-09-18T23:09:34.901Z,89169.78
2022-09-18T23:12:01.858Z,89173.41
2022-09-18T23:14:30.414Z,89165.81
2022-09-18T23:16:58.606Z,89166.94
2022-09-18T23:19:33.958Z,89159.34
2022-09-18T23:22:01.184Z,89164.34
2022-09-18T23:24:28.513Z,89171.75
2022-09-18T23:26:57.755Z,89175.53
2022-09-18T23:29:25.707Z,89164.03
2022-09-18T23:31:54.220Z,89169.44
2022-09-18T23:34:23.882Z,89166.19
2022-09-18T23:36:56.281Z,89164.03
2022-09-18T23:39:27.244Z,89180.47
2022-09-18T23:41:55.200Z,89175.25
2022-09-18T23:44:23.283Z,89178.66
2022-09-18T23:46:50.481Z,89168.38
2022-09-18T23:49:18.714Z,89172.72
2022-09-18T23:51:46.040Z,89174.50
2022-09-18T23:54:16.892Z,89167.31
2022-09-18T23:56:44.367Z,89178.31
2022-09-18T23:59:12.293Z,89185.56
